Time;durP1;ratioP1;P1;durP2;ratioP2;P2;SDS_P1;SDS_P2;PMS_P1;PMS_P2;Temp;Humidity;BMP_temperature;BMP_pressure;BME280_temperature;BME280_humidity;BME280_pressure;Samples;Min_cycle;Max_cycle;Signal;HPM_P1;HPM_P2
2023/12/28 00:00:49;;;;;;;13.52;3.45;;;9.50;99.90;;;;;;5074203;28;20606;-75
2023/12/28 00:03:15;;;;;;;12.68;3.35;;;9.40;99.90;;;;;;5073023;28;20052;-76
2023/12/28 00:05:40;;;;;;;14.85;3.92;;;10.30;99.90;;;;;;5073858;28;20052;-81
2023/12/28 00:08:06;;;;;;;14.68;3.45;;;9.40;99.90;;;;;;5072531;28;20171;-74
2023/12/28 00:10:32;;;;;;;19.70;4.78;;;9.50;99.90;;;;;;5073908;28;20041;-77
2023/12/28 00:12:58;;;;;;;14.10;3.53;;;9.30;99.90;;;;;;5074136;28;20036;-76
2023/12/28 00:15:23;;;;;;;13.65;3.42;;;9.60;99.90;;;;;;5100387;28;20037;-72
2023/12/28 00:17:49;;;;;;;20.13;4.10;;;9.60;99.90;;;;;;5073455;28;20045;-74
2023/12/28 00:20:15;;;;;;;13.52;3.30;;;10.10;99.90;;;;;;5073066;28;20041;-72
2023/12/28 00:22:40;;;;;;;17.13;3.50;;;9.40;99.90;;;;;;5069228;28;20048;-72
2023/12/28 00:25:06;;;;;;;17.55;3.40;;;9.30;99.90;;;;;;5073716;28;20446;-72
2023/12/28 00:27:34;;;;;;;15.73;3.25;;;9.30;99.90;;;;;;5074203;28;20047;-72
2023/12/28 00:30:00;;;;;;;17.45;3.42;;;9.30;99.90;;;;;;5071792;28;20041;-72
2023/12/28 00:32:25;;;;;;;19.38;4.70;;;9.30;99.90;;;;;;5072585;28;20131;-71
2023/12/28 00:34:51;;;;;;;17.83;3.40;;;9.90;99.90;;;;;;5073283;28;20128;-72
2023/12/28 00:37:17;;;;;;;14.60;3.25;;;9.30;99.90;;;;;;5068501;28;20044;-73
2023/12/28 00:39:42;;;;;;;22.67;4.53;;;9.80;99.90;;;;;;5071750;28;20086;-72
2023/12/28 00:42:08;;;;;;;19.67;3.85;;;9.70;99.90;;;;;;5071740;28;20125;-72
2023/12/28 00:44:37;;;;;;;20.45;4.70;;;9.30;99.90;;;;;;5072010;28;20778;-73
2023/12/28 00:47:03;;;;;;;15.43;4.10;;;10.10;99.90;;;;;;5072130;28;20136;-71
2023/12/28 00:49:28;;;;;;;22.15;3.60;;;9.30;99.90;;;;;;5066257;28;20040;-72
2023/12/28 00:51:54;;;;;;;11.98;3.63;;;9.20;99.90;;;;;;5069692;28;20450;-72
2023/12/28 00:54:22;;;;;;;22.73;3.42;;;10.10;99.90;;;;;;5071322;28;20040;-72
2023/12/28 00:56:48;;;;;;;15.45;3.13;;;9.30;99.90;;;;;;5071145;28;20051;-71
2023/12/28 00:59:13;;;;;;;15.98;2.92;;;9.20;99.90;;;;;;5067036;28;20044;-71
2023/12/28 01:01:39;;;;;;;14.27;3.78;;;9.20;99.90;;;;;;5070750;28;20381;-71
2023/12/28 01:04:06;;;;;;;18.83;4.07;;;9.20;99.90;;;;;;5069487;28;20036;-72
2023/12/28 01:06:34;;;;;;;20.70;3.55;;;9.20;99.90;;;;;;5071545;28;20040;-71
2023/12/28 01:08:59;;;;;;;20.70;4.45;;;9.20;99.90;;;;;;5071438;28;20059;-71
2023/12/28 01:11:25;;;;;;;18.80;3.60;;;10.00;99.90;;;;;;5072112;28;20062;-72
2023/12/28 01:13:54;;;;;;;18.60;3.78;;;9.20;99.90;;;;;;5071744;28;20052;-72
2023/12/28 01:16:20;;;;;;;16.35;2.95;;;9.10;99.90;;;;;;5071990;28;20048;-72
2023/12/28 01:18:47;;;;;;;19.02;3.28;;;9.10;99.90;;;;;;5072577;28;20048;-72
2023/12/28 01:21:12;;;;;;;20.85;3.63;;;9.10;99.90;;;;;;5072216;28;20056;-71
2023/12/28 01:23:38;;;;;;;21.02;3.42;;;9.10;99.90;;;;;;5071506;28;20049;-72
2023/12/28 01:26:03;;;;;;;18.65;3.50;;;9.60;99.90;;;;;;5071996;28;20137;-72
2023/12/28 01:28:30;;;;;;;17.95;3.30;;;9.70;99.90;;;;;;5071631;28;20059;-72
2023/12/28 01:30:55;;;;;;;23.95;4.20;;;9.30;99.90;;;;;;5070617;28;20051;-72
2023/12/28 01:33:21;;;;;;;19.23;3.55;;;10.10;99.90;;;;;;5071003;28;20048;-71
2023/12/28 01:35:46;;;;;;;17.23;3.80;;;9.10;99.90;;;;;;5071074;28;20555;-72
2023/12/28 01:38:12;;;;;;;15.88;2.95;;;9.20;99.90;;;;;;5070690;28;20041;-72
2023/12/28 01:40:37;;;;;;;19.92;3.83;;;9.60;99.90;;;;;;5104187;28;20853;-72
2023/12/28 01:43:03;;;;;;;21.33;3.67;;;9.20;99.90;;;;;;5071263;28;20102;-72
2023/12/28 01:45:29;;;;;;;16.58;4.25;;;9.20;99.90;;;;;;5072681;28;20127;-72
2023/12/28 01:48:00;;;;;;;20.23;3.90;;;9.10;99.90;;;;;;5073347;28;20511;-72
2023/12/28 01:50:27;;;;;;;18.00;4.10;;;9.00;99.90;;;;;;5072573;28;20045;-72
2023/12/28 01:52:53;;;;;;;24.70;4.75;;;9.80;99.90;;;;;;5072724;28;20041;-71
2023/12/28 01:55:20;;;;;;;22.58;4.15;;;9.20;99.90;;;;;;5105656;28;20483;-72
2023/12/28 01:57:46;;;;;;;16.00;3.28;;;9.70;99.90;;;;;;5072467;28;20124;-72
2023/12/28 02:00:12;;;;;;;27.73;4.45;;;10.00;99.90;;;;;;5071883;28;20155;-72
2023/12/28 02:02:38;;;;;;;24.85;4.18;;;9.20;99.90;;;;;;5072655;28;20040;-72
2023/12/28 02:05:04;;;;;;;20.80;5.18;;;9.30;99.90;;;;;;5071854;28;20109;-72
2023/12/28 02:07:32;;;;;;;17.60;3.67;;;9.20;99.90;;;;;;5070869;28;20131;-72
2023/12/28 02:09:58;;;;;;;27.23;4.25;;;9.50;99.90;;;;;;5072009;28;20040;-72
2023/12/28 02:12:23;;;;;;;21.42;5.07;;;10.00;99.90;;;;;;5071871;28;20472;-71
2023/12/28 02:14:49;;;;;;;20.80;3.80;;;9.30;99.90;;;;;;5071248;28;20499;-71
2023/12/28 02:17:28;;;;;;;24.08;3.80;;;9.90;99.90;;;;;;5071637;28;20044;-71
2023/12/28 02:19:55;;;;;;;17.60;3.47;;;9.80;99.90;;;;;;5069099;28;20401;-72
2023/12/28 02:22:24;;;;;;;15.23;3.58;;;10.20;99.90;;;;;;5071136;28;20079;-71
2023/12/28 02:24:59;;;;;;;22.50;3.42;;;10.20;99.90;;;;;;5072031;28;20056;-71
2023/12/28 02:27:25;;;;;;;24.27;4.68;;;9.50;99.90;;;;;;5071794;28;20087;-72
2023/12/28 02:29:50;;;;;;;19.95;3.53;;;10.40;99.90;;;;;;5071001;28;20052;-71
2023/12/28 02:32:19;;;;;;;19.77;3.78;;;10.20;99.90;;;;;;5071381;28;20040;-71
2023/12/28 02:34:49;;;;;;;21.88;3.60;;;10.20;99.90;;;;;;5071862;28;20060;-72
2023/12/28 02:37:17;;;;;;;20.50;3.60;;;9.60;99.90;;;;;;5070429;28;20158;-71
2023/12/28 02:39:45;;;;;;;15.02;3.05;;;9.60;99.90;;;;;;5071474;28;20056;-72
2023/12/28 02:42:11;;;;;;;20.38;3.95;;;10.30;99.90;;;;;;5071290;28;20048;-72
2023/12/28 02:44:36;;;;;;;17.10;3.03;;;10.10;99.90;;;;;;5070969;28;20247;-72
2023/12/28 02:47:02;;;;;;;16.10;3.78;;;10.00;99.90;;;;;;5070919;28;20480;-72
2023/12/28 02:49:30;;;;;;;19.15;3.60;;;9.90;99.90;;;;;;5105347;28;20053;-72
2023/12/28 02:51:56;;;;;;;19.17;3.17;;;10.00;99.90;;;;;;5104786;28;20500;-72
2023/12/28 02:54:22;;;;;;;13.85;3.08;;;9.80;99.90;;;;;;5072434;28;20055;-72
2023/12/28 02:56:47;;;;;;;17.77;2.70;;;10.40;99.90;;;;;;5070914;28;20053;-71
2023/12/28 02:59:16;;;;;;;12.90;2.72;;;10.50;99.90;;;;;;5071136;28;20042;-72
2023/12/28 03:01:41;;;;;;;16.20;2.95;;;10.60;99.90;;;;;;5071528;28;20055;-72
2023/12/28 03:04:09;;;;;;;18.58;3.25;;;9.90;99.90;;;;;;5071724;28;20052;-72
2023/12/28 03:06:35;;;;;;;16.30;3.47;;;10.20;99.90;;;;;;5072830;28;20391;-72
2023/12/28 03:09:01;;;;;;;12.43;2.35;;;10.30;99.90;;;;;;5070925;28;20049;-72
2023/12/28 03:11:26;;;;;;;14.85;3.03;;;10.30;99.90;;;;;;5104604;28;20041;-72
2023/12/28 03:13:52;;;;;;;14.57;3.33;;;10.50;99.90;;;;;;5071105;28;20076;-72
2023/12/28 03:16:17;;;;;;;16.35;3.95;;;10.90;99.90;;;;;;5070523;28;20049;-72
2023/12/28 03:18:43;;;;;;;14.38;2.88;;;10.40;99.90;;;;;;5070715;28;20044;-72
2023/12/28 03:21:11;;;;;;;12.05;2.90;;;10.20;99.90;;;;;;5070983;28;20056;-71
2023/12/28 03:23:37;;;;;;;12.48;2.75;;;10.70;99.90;;;;;;5072568;28;20048;-72
2023/12/28 03:26:03;;;;;;;14.88;2.95;;;10.00;99.90;;;;;;5071227;28;20610;-71
2023/12/28 03:28:28;;;;;;;12.25;2.80;;;9.90;99.90;;;;;;5070743;28;20040;-71
2023/12/28 03:30:54;;;;;;;17.90;3.22;;;10.50;99.90;;;;;;5071733;28;20040;-72
2023/12/28 03:33:19;;;;;;;14.48;2.55;;;10.00;99.90;;;;;;5071662;28;20040;-72
2023/12/28 03:35:45;;;;;;;15.60;3.20;;;10.40;99.90;;;;;;5070749;28;20040;-72
2023/12/28 03:38:10;;;;;;;11.25;2.75;;;10.10;99.90;;;;;;5070922;28;20051;-72
2023/12/28 03:40:36;;;;;;;15.77;2.92;;;10.70;99.90;;;;;;5070411;28;20052;-72
2023/12/28 03:43:02;;;;;;;15.75;3.17;;;10.50;99.90;;;;;;5070694;28;20128;-72
2023/12/28 03:45:27;;;;;;;21.58;3.67;;;10.30;99.90;;;;;;5070663;28;20454;-72
2023/12/28 03:47:53;;;;;;;9.63;2.40;;;10.20;99.90;;;;;;5069982;28;20045;-72
2023/12/28 03:50:18;;;;;;;14.70;3.17;;;10.30;99.90;;;;;;5071985;28;20044;-72
2023/12/28 03:52:44;;;;;;;17.52;3.20;;;10.70;99.90;;;;;;5070915;28;20074;-72
2023/12/28 03:55:10;;;;;;;15.57;2.80;;;10.30;99.90;;;;;;5070117;28;20056;-72
2023/12/28 03:57:35;;;;;;;12.32;2.83;;;10.30;99.90;;;;;;5070876;28;20404;-72
2023/12/28 04:00:01;;;;;;;12.15;2.70;;;10.90;99.90;;;;;;5070005;28;20126;-72
2023/12/28 04:02:31;;;;;;;13.35;2.90;;;10.20;99.90;;;;;;5071019;28;20052;-72
2023/12/28 04:04:58;;;;;;;14.27;3.20;;;11.10;99.90;;;;;;5071985;28;20055;-72
2023/12/28 04:07:24;;;;;;;18.25;2.47;;;10.80;99.90;;;;;;5070049;28;20097;-72
2023/12/28 04:09:49;;;;;;;13.77;2.83;;;11.10;99.90;;;;;;5070818;28;20127;-72
2023/12/28 04:12:15;;;;;;;16.80;2.90;;;11.20;99.90;;;;;;5070479;28;20037;-72
2023/12/28 04:14:41;;;;;;;16.33;3.17;;;10.50;99.90;;;;;;5069928;28;20523;-72
2023/12/28 04:17:09;;;;;;;17.60;2.92;;;11.00;99.90;;;;;;5070384;28;20047;-72
2023/12/28 04:19:34;;;;;;;21.10;3.65;;;10.40;99.90;;;;;;5070723;28;20045;-72
2023/12/28 04:22:00;;;;;;;17.10;3.10;;;10.50;99.90;;;;;;5070033;28;20041;-72
2023/12/28 04:24:26;;;;;;;17.77;3.40;;;10.60;99.90;;;;;;5070440;28;20545;-72
2023/12/28 04:26:51;;;;;;;17.48;3.20;;;10.50;99.90;;;;;;5074258;28;20037;-72
2023/12/28 04:29:17;;;;;;;15.77;3.17;;;10.70;99.90;;;;;;5072914;28;20155;-72
2023/12/28 04:31:42;;;;;;;19.27;2.47;;;10.70;99.90;;;;;;5074247;28;20056;-72
2023/12/28 04:34:08;;;;;;;22.00;3.78;;;10.60;99.90;;;;;;5073720;28;20056;-72
2023/12/28 04:36:43;;;;;;;20.63;3.63;;;10.70;99.90;;;;;;5074095;28;20045;-72
2023/12/28 04:39:10;;;;;;;18.88;3.40;;;10.90;99.90;;;;;;5090607;28;20131;-72
2023/12/28 04:41:35;;;;;;;18.13;3.40;;;11.40;99.90;;;;;;5067391;28;20127;-71
2023/12/28 04:44:01;;;;;;;15.95;3.10;;;11.10;99.90;;;;;;5072074;28;20499;-72
2023/12/28 04:46:26;;;;;;;19.13;3.42;;;10.90;99.90;;;;;;5073478;28;20048;-72
2023/12/28 04:48:52;;;;;;;17.45;3.70;;;10.90;99.90;;;;;;5074979;28;20552;-72
2023/12/28 04:51:18;;;;;;;14.98;3.05;;;10.60;99.90;;;;;;5073566;28;20044;-72
2023/12/28 04:53:43;;;;;;;13.38;3.13;;;10.60;99.90;;;;;;5073537;28;20053;-72
2023/12/28 04:56:09;;;;;;;18.77;3.28;;;10.60;99.90;;;;;;5073149;28;20048;-72
2023/12/28 04:58:35;;;;;;;25.13;4.18;;;9.80;99.90;;;;;;5073019;28;20399;-72
2023/12/28 05:01:02;;;;;;;18.05;3.08;;;10.80;99.90;;;;;;5073365;28;20094;-71
2023/12/28 05:03:28;;;;;;;17.90;3.50;;;10.90;99.90;;;;;;5073023;28;20059;-71
2023/12/28 05:05:53;;;;;;;19.08;3.03;;;10.40;99.90;;;;;;5074934;28;20044;-70
2023/12/28 05:08:19;;;;;;;22.92;5.13;;;11.10;99.90;;;;;;5074301;28;20048;-71
2023/12/28 05:10:45;;;;;;;16.85;3.78;;;10.90;99.90;;;;;;5070303;28;20060;-71
2023/12/28 05:13:10;;;;;;;18.20;3.75;;;10.50;99.90;;;;;;5105687;28;20056;-71
2023/12/28 05:15:36;;;;;;;21.65;3.90;;;10.40;99.90;;;;;;5072961;28;20068;-71
2023/12/28 05:18:02;;;;;;;19.17;3.60;;;10.80;99.90;;;;;;5071858;28;20492;-71
2023/12/28 05:20:27;;;;;;;20.27;3.83;;;10.20;99.90;;;;;;5072694;28;20055;-71
2023/12/28 05:22:53;;;;;;;20.15;4.18;;;10.30;99.90;;;;;;5073771;28;20048;-72
2023/12/28 05:25:18;;;;;;;26.67;3.47;;;10.90;99.90;;;;;;5071949;28;20040;-71
2023/12/28 05:27:44;;;;;;;18.80;4.43;;;10.10;99.90;;;;;;5074500;28;20443;-71
2023/12/28 05:30:10;;;;;;;29.77;3.95;;;10.60;99.90;;;;;;5072534;28;20082;-71
2023/12/28 05:32:36;;;;;;;26.50;3.83;;;10.20;99.90;;;;;;5072122;28;20051;-71
2023/12/28 05:35:05;;;;;;;21.77;4.53;;;10.00;99.90;;;;;;5072623;28;20044;-71
2023/12/28 05:37:30;;;;;;;17.60;3.45;;;10.20;99.90;;;;;;5073096;28;20503;-71
2023/12/28 05:39:59;;;;;;;22.20;4.28;;;10.10;99.90;;;;;;5072114;28;20049;-71
2023/12/28 05:42:24;;;;;;;24.13;3.85;;;10.10;99.90;;;;;;5072788;28;20125;-71
2023/12/28 05:44:50;;;;;;;19.33;4.20;;;10.20;99.90;;;;;;5072988;28;20080;-71
2023/12/28 05:47:16;;;;;;;22.70;3.55;;;10.10;99.90;;;;;;5070026;28;20082;-71
2023/12/28 05:49:42;;;;;;;18.00;4.00;;;10.30;99.90;;;;;;5070374;28;20044;-71
2023/12/28 05:52:07;;;;;;;21.33;3.88;;;10.10;99.90;;;;;;5070860;28;20044;-71
2023/12/28 05:54:34;;;;;;;28.00;5.20;;;10.90;99.90;;;;;;5070809;28;20466;-71
2023/12/28 05:56:59;;;;;;;23.15;4.10;;;10.20;99.90;;;;;;5071210;28;20083;-71
2023/12/28 05:59:26;;;;;;;22.85;4.15;;;10.30;99.90;;;;;;5070518;28;20050;-71
2023/12/28 06:01:52;;;;;;;25.27;5.07;;;11.00;99.90;;;;;;5071490;28;20127;-71
2023/12/28 06:04:17;;;;;;;22.05;3.92;;;10.30;99.90;;;;;;5072235;28;20132;-71
2023/12/28 06:06:43;;;;;;;24.80;5.10;;;10.70;99.90;;;;;;5071206;28;20053;-71
2023/12/28 06:09:09;;;;;;;23.55;3.88;;;10.20;99.90;;;;;;5071685;28;20047;-70
2023/12/28 06:11:34;;;;;;;17.90;3.90;;;10.60;99.90;;;;;;5073532;28;20043;-71
2023/12/28 06:14:00;;;;;;;20.17;3.92;;;10.40;99.90;;;;;;5072468;28;20033;-71
2023/12/28 06:16:25;;;;;;;18.98;3.30;;;10.30;99.90;;;;;;5073552;28;20044;-71
2023/12/28 06:18:51;;;;;;;19.45;4.32;;;10.40;99.90;;;;;;5072319;28;20037;-71
2023/12/28 06:21:16;;;;;;;29.55;4.60;;;10.50;99.90;;;;;;5070643;28;20046;-70
2023/12/28 06:23:45;;;;;;;17.60;3.55;;;10.30;99.90;;;;;;5072957;28;20048;-71
2023/12/28 06:26:14;;;;;;;19.50;4.00;;;10.30;99.90;;;;;;5071313;28;20483;-71
2023/12/28 06:28:40;;;;;;;20.58;4.10;;;11.20;99.90;;;;;;5071469;28;20048;-71
2023/12/28 06:31:05;;;;;;;17.30;3.88;;;10.30;99.90;;;;;;5071500;28;20048;-71
2023/12/28 06:33:31;;;;;;;24.13;4.20;;;10.30;99.90;;;;;;5073079;28;20127;-70
2023/12/28 06:35:59;;;;;;;20.02;4.97;;;10.30;99.90;;;;;;5070450;28;20048;-70
2023/12/28 06:38:25;;;;;;;24.10;4.13;;;10.50;99.90;;;;;;5071841;28;20048;-71
2023/12/28 06:40:51;;;;;;;23.15;5.07;;;10.70;99.90;;;;;;5071876;28;20056;-71
2023/12/28 06:43:17;;;;;;;23.60;5.13;;;10.60;99.90;;;;;;5071976;28;20083;-71
2023/12/28 06:45:42;;;;;;;24.83;3.80;;;10.50;99.90;;;;;;5105472;28;20089;-71
2023/12/28 06:48:08;;;;;;;20.67;4.40;;;10.20;99.90;;;;;;5070806;28;20044;-71
2023/12/28 06:50:33;;;;;;;24.00;3.97;;;10.20;99.90;;;;;;5070841;28;20044;-71
2023/12/28 06:52:59;;;;;;;25.23;4.50;;;10.10;99.90;;;;;;5070992;28;20040;-71
2023/12/28 06:55:25;;;;;;;27.92;3.92;;;10.20;99.90;;;;;;5071708;28;20040;-71
2023/12/28 06:57:50;;;;;;;21.90;5.00;;;10.20;99.90;;;;;;5071694;28;20048;-71
2023/12/28 07:00:16;;;;;;;28.48;4.95;;;10.20;99.90;;;;;;5070872;28;20043;-71
2023/12/28 07:02:42;;;;;;;23.30;4.20;;;10.20;99.90;;;;;;5071671;28;20400;-70
2023/12/28 07:05:08;;;;;;;23.85;4.50;;;10.80;99.90;;;;;;5071737;28;20079;-71
2023/12/28 07:07:33;;;;;;;22.75;4.57;;;10.50;99.90;;;;;;5071377;28;20114;-71
2023/12/28 07:09:59;;;;;;;28.90;4.47;;;10.80;99.90;;;;;;5071672;28;20426;-71
2023/12/28 07:12:25;;;;;;;28.58;5.10;;;10.20;99.90;;;;;;5072576;28;20048;-71
2023/12/28 07:14:50;;;;;;;25.02;4.30;;;10.40;99.90;;;;;;5071016;28;20047;-71
2023/12/28 07:17:19;;;;;;;22.75;5.03;;;10.80;99.90;;;;;;5070422;28;20094;-71
2023/12/28 07:19:47;;;;;;;23.73;4.25;;;10.30;99.90;;;;;;5071308;28;20076;-71
2023/12/28 07:22:13;;;;;;;23.98;4.68;;;10.30;99.90;;;;;;5072002;28;20076;-71
2023/12/28 07:24:38;;;;;;;24.20;4.80;;;10.30;99.90;;;;;;5072105;28;20036;-71
2023/12/28 07:27:04;;;;;;;28.65;5.68;;;10.70;99.90;;;;;;5071125;28;20101;-71
2023/12/28 07:29:32;;;;;;;31.52;5.50;;;10.20;99.90;;;;;;5071875;28;20056;-71
2023/12/28 07:31:58;;;;;;;27.92;4.75;;;10.20;99.90;;;;;;5070384;28;20044;-71
2023/12/28 07:34:23;;;;;;;21.30;5.20;;;10.20;99.90;;;;;;5070319;28;20048;-70
2023/12/28 07:36:49;;;;;;;26.83;5.13;;;10.30;99.90;;;;;;5070265;28;20071;-70
2023/12/28 07:39:15;;;;;;;22.30;4.78;;;10.30;99.90;;;;;;5069261;28;20171;-71
2023/12/28 07:41:40;;;;;;;35.75;6.57;;;10.30;99.90;;;;;;5070612;28;20045;-72
2023/12/28 07:44:06;;;;;;;29.80;5.43;;;10.30;99.90;;;;;;5104039;28;20081;-72
2023/12/28 07:46:31;;;;;;;31.23;6.35;;;10.30;99.90;;;;;;5071001;28;20547;-70
2023/12/28 07:48:57;;;;;;;30.45;5.07;;;10.40;99.90;;;;;;5072367;28;20051;-69
2023/12/28 07:51:23;;;;;;;34.58;6.60;;;10.30;99.90;;;;;;5071995;28;20136;-69
2023/12/28 07:53:48;;;;;;;42.05;6.20;;;10.40;99.90;;;;;;5069877;28;20076;-70
2023/12/28 07:56:14;;;;;;;34.17;6.75;;;10.40;99.90;;;;;;5071666;28;20404;-70
2023/12/28 07:58:39;;;;;;;31.67;6.45;;;10.60;99.90;;;;;;5071058;28;20102;-70
2023/12/28 08:01:10;;;;;;;28.17;5.00;;;10.50;99.90;;;;;;5070168;28;20444;-70
2023/12/28 08:03:36;;;;;;;31.75;6.25;;;11.00;99.90;;;;;;5074176;28;20537;-71
2023/12/28 08:06:04;;;;;;;37.38;6.72;;;10.60;99.90;;;;;;5074039;28;20049;-71
2023/12/28 08:08:34;;;;;;;30.48;6.28;;;10.40;99.90;;;;;;5073847;28;20044;-71
2023/12/28 08:11:00;;;;;;;32.85;5.82;;;10.50;99.90;;;;;;5074058;28;20052;-70
2023/12/28 08:13:25;;;;;;;35.72;6.45;;;11.00;99.90;;;;;;5074892;28;20041;-70
2023/12/28 08:15:51;;;;;;;36.35;7.10;;;10.30;99.90;;;;;;5075626;28;20097;-70
2023/12/28 08:18:17;;;;;;;36.38;4.90;;;10.40;99.90;;;;;;5073570;28;20044;-70
2023/12/28 08:20:42;;;;;;;39.78;6.03;;;10.30;99.90;;;;;;5073394;28;20045;-70
2023/12/28 08:23:08;;;;;;;29.55;6.57;;;10.40;99.90;;;;;;5073492;28;20075;-71
2023/12/28 08:25:34;;;;;;;28.55;5.88;;;10.80;99.90;;;;;;5075360;28;20044;-71
2023/12/28 08:28:00;;;;;;;32.45;6.13;;;11.10;99.90;;;;;;5073084;28;20041;-71
2023/12/28 08:30:27;;;;;;;35.40;6.38;;;10.40;99.90;;;;;;5072759;28;20048;-71
2023/12/28 08:32:53;;;;;;;34.30;5.75;;;10.30;99.90;;;;;;5072565;28;20079;-71
2023/12/28 08:35:18;;;;;;;36.03;6.47;;;10.70;99.90;;;;;;5070167;28;20083;-71
2023/12/28 08:37:44;;;;;;;29.30;7.25;;;10.40;99.90;;;;;;5072239;28;20484;-71
2023/12/28 08:40:10;;;;;;;50.50;7.28;;;10.40;99.90;;;;;;5071983;28;20052;-71
2023/12/28 08:42:35;;;;;;;35.85;6.63;;;10.40;99.90;;;;;;5072487;28;20044;-71
2023/12/28 08:45:01;;;;;;;29.45;6.15;;;10.60;99.90;;;;;;5072638;28;20047;-72
2023/12/28 08:47:27;;;;;;;31.00;6.45;;;10.40;99.90;;;;;;5071898;28;20451;-71
2023/12/28 08:49:52;;;;;;;29.02;5.63;;;10.50;99.90;;;;;;5071341;28;20053;-71
2023/12/28 08:52:18;;;;;;;25.30;4.70;;;10.60;99.90;;;;;;5073594;28;20037;-71
2023/12/28 08:54:50;;;;;;;49.42;6.95;;;10.70;99.90;;;;;;5071824;28;20044;-71
2023/12/28 08:57:15;;;;;;;34.85;5.93;;;11.00;99.90;;;;;;5071661;28;20499;-70
2023/12/28 08:59:41;;;;;;;27.38;5.13;;;11.00;99.90;;;;;;5073919;28;20045;-70
2023/12/28 09:02:07;;;;;;;44.58;7.05;;;10.60;99.90;;;;;;5071322;28;20105;-71
2023/12/28 09:04:35;;;;;;;40.45;5.90;;;10.80;99.90;;;;;;5097331;28;20052;-70
2023/12/28 09:07:02;;;;;;;30.85;5.68;;;10.60;99.90;;;;;;5072736;28;20059;-71
2023/12/28 09:09:27;;;;;;;31.17;5.70;;;10.90;99.90;;;;;;5105131;28;20056;-70
2023/12/28 09:11:53;;;;;;;23.52;5.05;;;10.60;99.90;;;;;;5071988;28;20047;-71
2023/12/28 09:14:19;;;;;;;28.10;6.20;;;10.60;99.90;;;;;;5073286;28;20090;-71
2023/12/28 09:16:46;;;;;;;38.05;6.63;;;10.60;99.90;;;;;;5070684;28;20083;-71
2023/12/28 09:19:12;;;;;;;31.05;5.25;;;10.60;99.90;;;;;;5089096;28;20110;-71
2023/12/28 09:21:38;;;;;;;28.73;5.45;;;10.70;99.90;;;;;;5071737;28;20488;-72
2023/12/28 09:24:03;;;;;;;33.20;5.45;;;11.40;99.90;;;;;;5072296;28;20480;-72
2023/12/28 09:26:29;;;;;;;29.35;4.90;;;10.80;99.90;;;;;;5070984;28;20043;-73
2023/12/28 09:28:55;;;;;;;36.42;5.90;;;11.50;99.90;;;;;;5071672;28;20068;-70
2023/12/28 09:31:20;;;;;;;29.45;4.82;;;10.80;99.90;;;;;;5070954;28;20063;-75
2023/12/28 09:33:46;;;;;;;27.38;5.53;;;11.40;99.90;;;;;;5073347;28;20049;-72
2023/12/28 09:36:13;;;;;;;28.67;6.47;;;11.40;99.90;;;;;;5072070;28;20040;-72
2023/12/28 09:38:38;;;;;;;32.78;6.13;;;11.00;99.90;;;;;;5070828;28;20178;-70
2023/12/28 09:41:14;;;;;;;26.40;5.78;;;10.90;99.90;;;;;;5071520;28;20131;-75
2023/12/28 09:43:50;;;;;;;26.23;5.18;;;10.80;99.90;;;;;;5072136;28;20377;-71
2023/12/28 09:46:16;;;;;;;;;;;10.90;99.90;;;;;;5069712;28;20109;-69
2023/12/28 09:48:42;;;;;;;27.63;4.93;;;10.80;99.90;;;;;;5073411;28;20007;-71
2023/12/28 09:51:10;;;;;;;26.65;5.20;;;10.90;99.90;;;;;;5071275;28;20044;-72
2023/12/28 09:53:36;;;;;;;31.52;5.03;;;11.10;99.90;;;;;;5070337;28;20392;-72
2023/12/28 09:56:02;;;;;;;31.23;5.28;;;10.90;99.90;;;;;;5071501;28;20049;-71
2023/12/28 09:58:30;;;;;;;37.78;5.40;;;10.80;99.90;;;;;;5069663;28;20045;-73
2023/12/28 10:00:56;;;;;;;38.03;6.25;;;11.10;99.90;;;;;;5070426;28;20460;-75
2023/12/28 10:03:22;;;;;;;23.08;4.53;;;10.80;99.90;;;;;;5070393;28;20443;-76
2023/12/28 10:05:53;;;;;;;24.45;5.35;;;10.80;99.90;;;;;;5070412;28;20044;-74
2023/12/28 10:08:19;;;;;;;29.55;5.28;;;10.90;99.90;;;;;;5071923;28;20484;-77
2023/12/28 10:10:50;;;;;;;30.95;5.28;;;11.30;99.90;;;;;;5070916;28;20040;-76
2023/12/28 10:13:17;;;;;;;30.40;5.28;;;10.90;99.90;;;;;;5098699;28;20037;-76
2023/12/28 10:15:45;;;;;;;26.65;5.53;;;11.10;99.90;;;;;;5071246;28;20036;-82
2023/12/28 10:18:11;;;;;;;21.80;4.20;;;10.90;99.90;;;;;;5071076;28;20387;-78
2023/12/28 10:20:38;;;;;;;24.42;4.75;;;11.30;99.90;;;;;;5069541;28;20052;-76
2023/12/28 10:23:03;;;;;;;28.00;4.45;;;10.90;99.90;;;;;;5095814;28;20029;-76
2023/12/28 10:25:32;;;;;;;24.08;4.88;;;10.90;99.90;;;;;;5087172;28;20485;-75
2023/12/28 10:28:03;;;;;;;25.35;4.43;;;11.20;99.90;;;;;;5069690;28;20120;-77
2023/12/28 10:30:32;;;;;;;25.88;4.72;;;10.90;99.90;;;;;;5071050;28;20072;-75
2023/12/28 10:32:58;;;;;;;29.13;5.60;;;10.90;99.90;;;;;;5070469;28;20055;-74
2023/12/28 10:35:23;;;;;;;28.80;4.97;;;10.90;99.90;;;;;;5069797;28;20168;-70
2023/12/28 10:37:53;;;;;;;28.60;5.15;;;10.90;99.90;;;;;;5070232;28;20044;-72
2023/12/28 10:40:21;;;;;;;21.20;4.97;;;11.30;99.90;;;;;;5070034;28;20044;-71
2023/12/28 10:43:00;;;;;;;19.15;4.80;;;11.00;99.90;;;;;;5070237;28;20040;-72
2023/12/28 10:45:28;;;;;;;33.88;6.07;;;11.00;99.90;;;;;;5070291;28;20720;-74
2023/12/28 10:48:07;;;;;;;28.42;4.93;;;11.50;99.90;;;;;;5067147;28;20144;-71
2023/12/28 10:50:47;;;;;;;21.80;4.15;;;11.20;99.90;;;;;;5063985;28;20052;-71
2023/12/28 10:53:29;;;;;;;29.02;5.78;;;11.00;99.90;;;;;;5068735;28;20408;-69
2023/12/28 10:56:10;;;;;;;23.00;4.72;;;10.90;99.90;;;;;;5068941;28;20051;-69
2023/12/28 10:58:41;;;;;;;33.00;7.15;;;11.00;99.90;;;;;;5068980;28;20048;-69
2023/12/28 11:01:09;;;;;;;27.58;6.43;;;11.10;99.90;;;;;;5069386;28;20402;-69
2023/12/28 11:03:40;;;;;;;35.85;5.95;;;11.10;99.90;;;;;;5067830;28;20037;-68
2023/12/28 11:06:08;;;;;;;31.52;5.00;;;11.10;99.90;;;;;;5068400;28;20085;-71
2023/12/28 11:08:42;;;;;;;21.77;5.10;;;11.50;99.90;;;;;;5069774;28;20045;-69
2023/12/28 11:11:08;;;;;;;25.73;3.90;;;11.20;99.90;;;;;;5065464;28;20419;-70
2023/12/28 11:13:35;;;;;;;31.70;5.25;;;11.80;99.90;;;;;;5070275;28;20408;-69
2023/12/28 11:16:01;;;;;;;29.17;4.10;;;11.30;99.90;;;;;;5069599;28;20090;-69
2023/12/28 11:18:28;;;;;;;25.55;5.43;;;11.30;99.90;;;;;;5069169;28;20049;-69
2023/12/28 11:20:58;;;;;;;26.40;4.75;;;11.70;99.90;;;;;;5070327;28;20104;-69
2023/12/28 11:23:25;;;;;;;30.08;5.57;;;11.30;99.90;;;;;;5069544;28;20496;-71
2023/12/28 11:25:51;;;;;;;26.33;5.28;;;11.30;99.90;;;;;;5068207;28;20051;-70
2023/12/28 11:28:16;;;;;;;29.15;5.10;;;11.30;99.90;;;;;;5068778;28;20037;-71
2023/12/28 11:30:43;;;;;;;22.00;5.05;;;11.20;99.90;;;;;;5067907;28;20036;-72
2023/12/28 11:33:10;;;;;;;27.92;5.07;;;11.30;99.90;;;;;;5067975;28;20040;-73
2023/12/28 11:35:42;;;;;;;25.15;4.55;;;11.10;99.90;;;;;;5070002;28;20198;-75
2023/12/28 11:38:14;;;;;;;29.85;4.95;;;11.10;99.90;;;;;;5071577;28;20066;-77
2023/12/28 11:40:47;;;;;;;26.05;4.68;;;10.90;99.90;;;;;;5093270;28;20044;-72
2023/12/28 11:43:21;;;;;;;28.85;4.93;;;11.00;99.90;;;;;;5072652;28;20048;-72
2023/12/28 11:45:50;;;;;;;25.17;4.72;;;11.30;99.90;;;;;;5065388;28;20094;-71
2023/12/28 11:48:29;;;;;;;26.98;5.15;;;11.30;99.90;;;;;;5075503;28;20070;-71
2023/12/28 11:50:59;;;;;;;26.90;5.00;;;11.10;99.90;;;;;;5091129;28;20577;-71
2023/12/28 11:53:26;;;;;;;23.50;5.15;;;11.20;99.90;;;;;;5073098;28;20045;-72
2023/12/28 11:55:59;;;;;;;34.55;6.07;;;11.30;99.90;;;;;;5072485;28;20093;-72
2023/12/28 11:58:24;;;;;;;32.72;5.50;;;11.20;99.90;;;;;;5068482;28;20048;-72
2023/12/28 12:00:50;;;;;;;30.23;4.15;;;11.30;99.90;;;;;;5072653;28;20480;-72
2023/12/28 12:03:15;;;;;;;26.88;4.97;;;11.30;99.90;;;;;;5074021;28;20044;-72
2023/12/28 12:05:41;;;;;;;27.88;6.53;;;11.40;99.90;;;;;;5074435;28;20052;-72
2023/12/28 12:08:10;;;;;;;30.52;4.90;;;11.40;99.90;;;;;;5075477;28;20041;-71
2023/12/28 12:10:35;;;;;;;32.35;5.78;;;11.20;99.90;;;;;;5074308;28;20407;-69
2023/12/28 12:13:10;;;;;;;28.33;5.10;;;11.10;99.90;;;;;;5074343;28;20459;-70
2023/12/28 12:15:36;;;;;;;32.03;5.88;;;11.20;99.90;;;;;;5074479;28;20048;-70
2023/12/28 12:18:03;;;;;;;31.15;5.15;;;11.20;99.90;;;;;;5074045;28;20419;-69
2023/12/28 12:20:29;;;;;;;27.90;5.18;;;11.10;99.90;;;;;;5074309;28;20082;-70
2023/12/28 12:23:00;;;;;;;33.70;5.50;;;11.10;99.90;;;;;;5075317;28;20044;-72
2023/12/28 12:25:26;;;;;;;28.20;5.53;;;11.30;99.90;;;;;;5074382;28;20040;-70
2023/12/28 12:27:52;;;;;;;25.90;5.18;;;11.60;99.90;;;;;;5072850;28;20049;-72
2023/12/28 12:30:19;;;;;;;22.40;5.38;;;11.20;99.90;;;;;;5073398;28;20064;-72
2023/12/28 12:32:45;;;;;;;31.10;6.28;;;11.20;99.90;;;;;;5074048;28;20135;-77
2023/12/28 12:35:11;;;;;;;34.63;7.97;;;11.20;99.90;;;;;;5072447;28;20127;-73